createdAt,value
2024-04-23T00:00:27.765Z,-1.19
2024-04-23T00:01:27.790Z,-1.32
2024-04-23T00:02:27.750Z,-1.27
2024-04-23T00:03:27.784Z,-1.33
2024-04-23T00:04:27.793Z,-1.29
2024-04-23T00:05:27.730Z,-1.35
2024-04-23T00:06:27.716Z,-1.35
2024-04-23T00:07:27.789Z,-1.38
2024-04-23T00:08:27.753Z,-1.29
2024-04-23T00:09:27.715Z,-1.32
2024-04-23T00:10:27.724Z,-1.38
2024-04-23T00:11:27.749Z,-1.27
2024-04-23T00:12:27.707Z,-1.35
2024-04-23T00:13:27.695Z,-1.37
2024-04-23T00:14:27.663Z,-1.29
2024-04-23T00:15:27.662Z,-1.40
2024-04-23T00:16:27.668Z,-1.35
2024-04-23T00:17:27.743Z,-1.46
2024-04-23T00:18:27.778Z,-1.35
2024-04-23T00:19:27.671Z,-1.38
2024-04-23T00:20:27.629Z,-1.35
2024-04-23T00:21:27.635Z,-1.30
2024-04-23T00:22:27.673Z,-1.41
2024-04-23T00:23:27.601Z,-1.51
2024-04-23T00:24:28.587Z,-1.44
2024-04-23T00:25:27.597Z,-1.50
2024-04-23T00:26:27.594Z,-1.43
2024-04-23T00:27:27.567Z,-1.43
2024-04-23T00:28:27.626Z,-1.47
2024-04-23T00:29:27.579Z,-1.53
2024-04-23T00:30:27.564Z,-1.48
2024-04-23T00:31:27.582Z,-1.58
2024-04-23T00:32:27.558Z,-1.48
2024-04-23T00:33:27.573Z,-1.51
2024-04-23T00:34:27.561Z,-1.62
2024-04-23T00:35:27.536Z,-1.65
2024-04-23T00:36:27.532Z,-1.61
2024-04-23T00:37:27.501Z,-1.59
2024-04-23T00:38:27.486Z,-1.72
2024-04-23T00:39:27.477Z,-1.72
2024-04-23T00:40:27.560Z,-1.69
2024-04-23T00:41:27.463Z,-1.66
2024-04-23T00:42:27.473Z,-1.66
2024-04-23T00:43:27.475Z,-1.66
2024-04-23T00:44:27.445Z,-1.62
2024-04-23T00:45:27.459Z,-1.66
2024-04-23T00:46:27.463Z,-1.58
2024-04-23T00:47:27.497Z,-1.61
2024-04-23T00:48:27.466Z,-1.50
2024-04-23T00:49:27.461Z,-1.56
2024-04-23T00:50:27.400Z,-1.62
2024-04-23T00:51:27.388Z,-1.65
2024-04-23T00:52:27.472Z,-1.66
2024-04-23T00:53:27.368Z,-1.62
2024-04-23T00:54:27.390Z,-1.61
2024-04-23T00:55:27.379Z,-1.64
2024-04-23T00:56:27.357Z,-1.71
2024-04-23T00:57:27.340Z,-1.65
2024-04-23T00:58:27.384Z,-1.61
2024-04-23T00:59:27.355Z,-1.71
2024-04-23T01:00:27.319Z,-1.65
2024-04-23T01:01:27.351Z,-1.65
2024-04-23T01:02:27.335Z,-1.71
2024-04-23T01:03:27.342Z,-1.68
2024-04-23T01:04:27.302Z,-1.69
2024-04-23T01:05:27.288Z,-1.71
2024-04-23T01:06:27.271Z,-1.68
2024-04-23T01:07:27.291Z,-1.69
2024-04-23T01:08:27.280Z,-1.68
2024-04-23T01:09:59.685Z,-1.66
2024-04-23T01:10:27.286Z,-1.58
2024-04-23T01:11:27.250Z,-1.66
2024-04-23T01:12:27.240Z,-1.69
2024-04-23T01:13:27.275Z,-1.66
2024-04-23T01:14:27.216Z,-1.74
2024-04-23T01:15:27.204Z,-1.66
2024-04-23T01:16:27.227Z,-1.76
2024-04-23T01:17:27.248Z,-1.71
2024-04-23T01:18:27.280Z,-1.74
2024-04-23T01:19:27.192Z,-1.84
2024-04-23T01:20:27.172Z,-1.92
2024-04-23T01:21:27.160Z,-1.79
2024-04-23T01:22:27.182Z,-1.90
2024-04-23T01:23:27.172Z,-1.90
2024-04-23T01:24:27.141Z,-1.95
2024-04-23T01:25:27.163Z,-1.84
2024-04-23T01:26:27.123Z,-1.98
2024-04-23T01:27:27.142Z,-1.83
2024-04-23T01:28:27.145Z,-1.84
2024-04-23T01:29:27.103Z,-1.76
2024-04-23T01:30:27.096Z,-1.83
2024-04-23T01:31:27.140Z,-1.80
2024-04-23T01:32:27.171Z,-1.89
2024-04-23T01:33:27.256Z,-1.97
2024-04-23T01:34:27.109Z,-1.80
2024-04-23T01:35:27.050Z,-2.00
2024-04-23T01:36:27.069Z,-1.86
2024-04-23T01:37:27.086Z,-1.90
2024-04-23T01:38:27.044Z,-1.95
2024-04-23T01:39:27.023Z,-1.90
2024-04-23T01:40:27.047Z,-1.95
2024-04-23T01:41:27.037Z,-1.92
2024-04-23T01:42:27.000Z,-1.92
2024-04-23T01:43:27.013Z,-1.97
2024-04-23T01:44:26.987Z,-1.92
2024-04-23T01:45:26.986Z,-1.95
2024-04-23T01:46:27.009Z,-2.00
2024-04-23T01:47:27.087Z,-1.95
2024-04-23T01:48:26.989Z,-2.04
2024-04-23T01:49:26.979Z,-2.01
2024-04-23T01:50:26.945Z,-1.97
2024-04-23T01:51:26.962Z,-2.12
2024-04-23T01:52:26.958Z,-2.00
2024-04-23T01:53:26.937Z,-2.04
2024-04-23T01:54:26.925Z,-2.01
2024-04-23T01:55:26.970Z,-2.00
2024-04-23T01:56:26.933Z,-1.98
2024-04-23T01:57:26.903Z,-2.00
2024-04-23T01:58:26.934Z,-2.04
2024-04-23T01:59:26.886Z,-2.04
2024-04-23T02:00:26.898Z,-2.15
2024-04-23T02:01:26.929Z,-2.02
2024-04-23T02:02:26.889Z,-2.16
2024-04-23T02:03:26.888Z,-2.08
2024-04-23T02:04:26.875Z,-2.08
2024-04-23T02:05:26.850Z,-2.12
2024-04-23T02:06:26.823Z,-2.05
2024-04-23T02:07:26.866Z,-2.18
2024-04-23T02:08:26.823Z,-2.05
2024-04-23T02:09:26.795Z,-2.15
2024-04-23T02:10:26.916Z,-2.21
2024-04-23T02:11:26.844Z,-2.16
2024-04-23T02:12:26.786Z,-2.26
2024-04-23T02:13:26.826Z,-2.26
2024-04-23T02:14:26.780Z,-2.21
2024-04-23T02:15:26.776Z,-2.23
2024-04-23T02:16:26.774Z,-2.13
2024-04-23T02:17:26.801Z,-2.21
2024-04-23T02:18:26.818Z,-2.08
2024-04-23T02:19:26.764Z,-2.19
2024-04-23T02:20:26.726Z,-2.15
2024-04-23T02:21:26.716Z,-2.30
2024-04-23T02:22:26.733Z,-2.23
2024-04-23T02:23:26.696Z,-2.28
2024-04-23T02:24:26.728Z,-2.25
2024-04-23T02:25:26.707Z,-2.19
2024-04-23T02:26:26.664Z,-2.23
2024-04-23T02:27:27.667Z,-2.18
2024-04-23T02:28:26.691Z,-2.28
2024-04-23T02:29:26.677Z,-2.28
2024-04-23T02:30:26.645Z,-2.22
2024-04-23T02:31:26.665Z,-2.34
2024-04-23T02:32:26.669Z,-2.23
2024-04-23T02:33:26.765Z,-2.37
2024-04-23T02:34:26.667Z,-2.37
2024-04-23T02:35:26.615Z,-2.30
2024-04-23T02:36:26.607Z,-2.34
2024-04-23T02:37:26.712Z,-2.37
2024-04-23T02:38:26.618Z,-2.34
2024-04-23T02:39:26.579Z,-2.32
2024-04-23T02:40:26.639Z,-2.41
2024-04-23T02:41:26.576Z,-2.48
2024-04-23T02:42:26.557Z,-2.44
2024-04-23T02:43:26.614Z,-2.40
2024-04-23T02:44:26.543Z,-2.45
2024-04-23T02:45:29.130Z,-2.38
2024-04-23T02:46:27.552Z,-2.42
2024-04-23T02:47:26.665Z,-2.41
2024-04-23T02:48:26.589Z,-2.50
2024-04-23T02:49:26.554Z,-2.55
2024-04-23T02:50:26.495Z,-2.47
2024-04-23T02:51:26.498Z,-2.52
2024-04-23T02:52:26.517Z,-2.45
2024-04-23T02:53:26.475Z,-2.48
2024-04-23T02:54:26.468Z,-2.40
2024-04-23T02:55:26.487Z,-2.52
2024-04-23T02:56:26.451Z,-2.50
2024-04-23T02:57:26.474Z,-2.50
2024-04-23T02:58:26.465Z,-2.44
2024-04-23T02:59:26.432Z,-2.48
2024-04-23T03:00:26.418Z,-2.41
2024-04-23T03:01:26.442Z,-2.53
2024-04-23T03:02:26.508Z,-2.56
2024-04-23T03:03:26.450Z,-2.65
2024-04-23T03:04:26.406Z,-2.58
2024-04-23T03:05:26.386Z,-2.59
2024-04-23T03:06:26.394Z,-2.56
2024-04-23T03:07:26.391Z,-2.65
2024-04-23T03:08:26.361Z,-2.56
2024-04-23T03:09:26.351Z,-2.59
2024-04-23T03:10:26.379Z,-2.45
2024-04-23T03:11:26.388Z,-2.53
2024-04-23T03:12:26.334Z,-2.55
2024-04-23T03:13:26.339Z,-2.56
2024-04-23T03:14:26.321Z,-2.60
2024-04-23T03:15:26.333Z,-2.53
2024-04-23T03:16:26.359Z,-2.59
2024-04-23T03:17:26.313Z,-2.59
2024-04-23T03:18:26.435Z,-2.53
2024-04-23T03:19:26.339Z,-2.55
2024-04-23T03:20:26.295Z,-2.58
2024-04-23T03:21:26.315Z,-2.66
2024-04-23T03:22:26.290Z,-2.69
2024-04-23T03:23:26.260Z,-2.60
2024-04-23T03:24:26.264Z,-2.62
2024-04-23T03:25:26.289Z,-2.63
2024-04-23T03:26:26.238Z,-2.60
2024-04-23T03:27:26.224Z,-2.58
2024-04-23T03:28:26.241Z,-2.53
2024-04-23T03:29:26.204Z,-2.58
2024-04-23T03:30:26.231Z,-2.60
2024-04-23T03:31:26.207Z,-2.63
2024-04-23T03:32:26.301Z,-2.69
2024-04-23T03:33:26.219Z,-2.58
2024-04-23T03:34:26.223Z,-2.63
2024-04-23T03:35:26.194Z,-2.69
2024-04-23T03:36:26.164Z,-2.74
2024-04-23T03:37:26.198Z,-2.74
2024-04-23T03:38:26.139Z,-2.74
2024-04-23T03:39:26.165Z,-2.74
2024-04-23T03:40:26.315Z,-2.69
2024-04-23T03:41:26.119Z,-2.56
2024-04-23T03:42:26.114Z,-2.59
2024-04-23T03:43:26.145Z,-2.63
2024-04-23T03:44:26.121Z,-2.73
2024-04-23T03:45:26.087Z,-2.69
2024-04-23T03:46:26.274Z,-2.74
2024-04-23T03:47:26.108Z,-2.76
2024-04-23T03:48:26.093Z,-2.62
2024-04-23T03:49:26.097Z,-2.78
2024-04-23T03:50:28.000Z,-2.74
2024-04-23T03:51:27.050Z,-2.62
2024-04-23T03:52:26.037Z,-2.66
2024-04-23T03:53:26.061Z,-2.73
2024-04-23T03:54:26.047Z,-2.74
2024-04-23T03:55:26.016Z,-2.77
2024-04-23T03:56:26.004Z,-2.73
2024-04-23T03:57:26.003Z,-2.77
2024-04-23T03:58:26.017Z,-2.70
2024-04-23T03:59:25.981Z,-2.77
2024-04-23T04:00:25.987Z,-2.84
2024-04-23T04:01:25.965Z,-2.63
2024-04-23T04:02:26.129Z,-2.69
2024-04-23T04:03:26.000Z,-2.73
2024-04-23T04:04:25.955Z,-2.77
2024-04-23T04:05:25.959Z,-2.70
2024-04-23T04:06:25.937Z,-2.74
2024-04-23T04:07:25.934Z,-2.66
2024-04-23T04:08:25.949Z,-2.74
2024-04-23T04:09:25.907Z,-2.70
2024-04-23T04:10:25.912Z,-2.58
2024-04-23T04:11:26.065Z,-2.63
2024-04-23T04:12:25.942Z,-2.77
2024-04-23T04:13:25.928Z,-2.59
2024-04-23T04:14:25.877Z,-2.63
2024-04-23T04:15:25.862Z,-2.69
2024-04-23T04:16:25.859Z,-2.63
2024-04-23T04:17:25.985Z,-2.65
2024-04-23T04:18:25.888Z,-2.66
2024-04-23T04:19:25.840Z,-2.58
2024-04-23T04:20:25.833Z,-2.62
2024-04-23T04:21:25.816Z,-2.66
2024-04-23T04:22:25.833Z,-2.69
2024-04-23T04:23:25.816Z,-2.60
2024-04-23T04:24:25.798Z,-2.62
2024-04-23T04:25:25.792Z,-2.41
2024-04-23T04:26:25.818Z,-2.35
2024-04-23T04:27:25.796Z,-2.44
2024-04-23T04:28:25.768Z,-2.38
2024-04-23T04:29:25.770Z,-2.19
2024-04-23T04:30:25.760Z,-2.12
2024-04-23T04:31:25.776Z,-1.82
2024-04-23T04:32:25.770Z,-1.40
2024-04-23T04:33:25.837Z,-1.02
2024-04-23T04:34:25.733Z,-0.59
2024-04-23T04:35:25.722Z,-0.14
2024-04-23T04:36:25.740Z,0.10
2024-04-23T04:37:25.705Z,0.29
2024-04-23T04:38:25.702Z,0.63
2024-04-23T04:39:25.693Z,1.06
2024-04-23T04:40:25.703Z,1.53
2024-04-23T04:41:28.902Z,1.88
2024-04-23T04:42:26.668Z,2.18
2024-04-23T04:43:25.659Z,2.67
2024-04-23T04:44:25.645Z,2.90
2024-04-23T04:45:25.696Z,3.31
2024-04-23T04:46:25.669Z,3.50
2024-04-23T04:47:25.666Z,3.74
2024-04-23T04:48:25.679Z,3.95
2024-04-23T04:49:25.621Z,4.31
2024-04-23T04:50:25.625Z,4.52
2024-04-23T04:51:25.598Z,4.70
2024-04-23T04:52:25.630Z,5.07
2024-04-23T04:53:25.603Z,5.26
2024-04-23T04:54:25.576Z,5.44
2024-04-23T04:55:26.279Z,5.62
2024-04-23T04:56:26.562Z,5.94
2024-04-23T04:57:25.563Z,6.24
2024-04-23T04:58:25.579Z,6.42
2024-04-23T04:59:25.561Z,6.44
2024-04-23T05:00:25.554Z,6.33
2024-04-23T05:01:25.522Z,5.91
2024-04-23T05:02:25.543Z,6.04
2024-04-23T05:03:25.512Z,6.38
2024-04-23T05:04:25.543Z,6.69
2024-04-23T05:05:25.489Z,7.06
2024-04-23T05:06:26.246Z,7.24
2024-04-23T05:07:26.470Z,7.56
2024-04-23T05:08:25.480Z,7.66
2024-04-23T05:09:25.486Z,7.85
2024-04-23T05:10:25.455Z,7.98
2024-04-23T05:11:25.435Z,8.24
2024-04-23T05:12:25.426Z,8.48
2024-04-23T05:13:25.427Z,8.71
2024-04-23T05:14:25.449Z,8.81
2024-04-23T05:15:25.414Z,9.02
2024-04-23T05:16:25.396Z,9.26
2024-04-23T05:17:25.454Z,9.46
2024-04-23T05:18:25.434Z,9.54
2024-04-23T05:19:25.402Z,9.61
2024-04-23T05:20:25.366Z,9.79
2024-04-23T05:21:25.363Z,9.89
2024-04-23T05:22:25.354Z,10.07
2024-04-23T05:23:25.377Z,10.02
2024-04-23T05:24:25.375Z,10.05
2024-04-23T05:25:27.338Z,10.22
2024-04-23T05:26:25.323Z,10.30
2024-04-23T05:27:25.306Z,10.44
2024-04-23T05:28:26.330Z,10.28
2024-04-23T05:29:25.325Z,10.37
2024-04-23T05:30:25.305Z,10.42
2024-04-23T05:31:25.286Z,10.37
2024-04-23T05:32:26.999Z,10.44
2024-04-23T05:33:25.377Z,10.41
2024-04-23T05:34:25.266Z,10.60
2024-04-23T05:35:25.251Z,10.75
2024-04-23T05:36:25.270Z,10.92
2024-04-23T05:37:25.263Z,11.04
2024-04-23T05:38:25.254Z,11.02
2024-04-23T05:39:25.280Z,11.14
2024-04-23T05:40:25.212Z,11.18
2024-04-23T05:41:25.206Z,11.37
2024-04-23T05:42:25.234Z,11.47
2024-04-23T05:43:25.226Z,11.40
2024-04-23T05:44:25.200Z,11.18
2024-04-23T05:45:25.186Z,11.22
2024-04-23T05:46:25.182Z,11.36
2024-04-23T05:47:25.322Z,11.48
2024-04-23T05:48:25.282Z,11.40
2024-04-23T05:49:25.146Z,11.66
2024-04-23T05:50:28.440Z,11.83
2024-04-23T05:51:26.153Z,11.95
2024-04-23T05:52:30.104Z,12.25
2024-04-23T05:53:27.125Z,12.15
2024-04-23T05:54:25.112Z,12.40
2024-04-23T05:55:25.097Z,12.72
2024-04-23T05:56:25.176Z,13.00
2024-04-23T05:57:25.086Z,13.31
2024-04-23T05:58:25.105Z,12.94
2024-04-23T05:59:25.079Z,12.73
2024-04-23T06:00:25.101Z,12.85
2024-04-23T06:01:25.163Z,13.27
2024-04-23T06:02:25.047Z,13.44
2024-04-23T06:03:26.094Z,13.67
2024-04-23T06:04:25.171Z,13.83
2024-04-23T06:05:25.149Z,13.50
2024-04-23T06:06:25.055Z,13.67
2024-04-23T06:07:25.053Z,13.33
2024-04-23T06:08:25.080Z,13.05
2024-04-23T06:09:25.034Z,12.87
2024-04-23T06:10:25.041Z,12.70
2024-04-23T06:11:25.088Z,12.75
2024-04-23T06:12:24.980Z,12.83
2024-04-23T06:13:24.973Z,12.27
2024-04-23T06:14:24.966Z,12.17
2024-04-23T06:15:24.980Z,11.83
2024-04-23T06:16:24.959Z,12.13
2024-04-23T06:17:31.809Z,12.57
2024-04-23T06:18:27.041Z,12.54
2024-04-23T06:19:24.923Z,12.50
2024-04-23T06:20:24.938Z,12.39
2024-04-23T06:21:24.910Z,12.10
2024-04-23T06:22:24.912Z,12.15
2024-04-23T06:23:24.889Z,12.22
2024-04-23T06:24:24.914Z,12.50
2024-04-23T06:25:24.976Z,12.78
2024-04-23T06:26:24.910Z,13.03
2024-04-23T06:27:24.860Z,13.18
2024-04-23T06:28:24.859Z,13.11
2024-04-23T06:29:24.870Z,13.11
2024-04-23T06:30:24.832Z,13.42
2024-04-23T06:31:25.845Z,13.62
2024-04-23T06:32:25.067Z,14.11
2024-04-23T06:33:24.927Z,14.54
2024-04-23T06:34:24.861Z,14.85
2024-04-23T06:35:24.807Z,15.03
2024-04-23T06:36:24.801Z,15.24
2024-04-23T06:37:24.798Z,14.84
2024-04-23T06:38:24.809Z,14.63
2024-04-23T06:39:24.789Z,14.63
2024-04-23T06:40:31.055Z,14.69
2024-04-23T06:41:26.784Z,14.81
2024-04-23T06:42:24.752Z,14.68
2024-04-23T06:43:30.587Z,14.68
2024-04-23T06:44:26.748Z,14.86
2024-04-23T06:45:25.805Z,14.85
2024-04-23T06:46:25.750Z,15.28
2024-04-23T06:47:24.778Z,15.43
2024-04-23T06:48:24.765Z,14.94
2024-04-23T06:49:24.704Z,14.60
2024-04-23T06:50:24.702Z,14.41
2024-04-23T06:51:24.689Z,14.41
2024-04-23T06:52:24.734Z,14.22
2024-04-23T06:53:24.704Z,14.12
2024-04-23T06:54:24.670Z,14.48
2024-04-23T06:55:24.659Z,15.06
2024-04-23T06:56:24.664Z,15.43
2024-04-23T06:57:24.688Z,15.64
2024-04-23T06:58:25.164Z,16.12
2024-04-23T06:59:24.632Z,16.24
2024-04-23T07:00:25.629Z,16.42
2024-04-23T07:01:24.626Z,15.91
2024-04-23T07:02:24.695Z,15.86
2024-04-23T07:03:24.613Z,16.09
2024-04-23T07:04:24.599Z,16.17
2024-04-23T07:05:24.589Z,16.64
2024-04-23T07:06:24.618Z,16.41
2024-04-23T07:07:24.603Z,16.41
2024-04-23T07:08:24.586Z,16.58
2024-04-23T07:09:57.229Z,16.53
2024-04-23T07:10:24.559Z,16.58
2024-04-23T07:11:24.689Z,16.72
2024-04-23T07:12:24.548Z,16.54
2024-04-23T07:13:24.543Z,16.39
2024-04-23T07:14:24.565Z,16.74
2024-04-23T07:15:24.527Z,16.86
2024-04-23T07:16:24.552Z,17.19
2024-04-23T07:17:24.668Z,17.11
2024-04-23T07:18:24.578Z,17.26
2024-04-23T07:19:24.494Z,16.72
2024-04-23T07:20:24.510Z,16.97
2024-04-23T07:21:24.513Z,17.14
2024-04-23T07:22:24.481Z,17.33
2024-04-23T07:23:24.482Z,17.48
2024-04-23T07:24:24.453Z,17.59
2024-04-23T07:25:25.273Z,17.59
2024-04-23T07:26:25.479Z,17.29
2024-04-23T07:27:24.443Z,16.74
2024-04-23T07:28:24.490Z,16.75
2024-04-23T07:29:24.429Z,17.19
2024-04-23T07:30:24.419Z,17.41
2024-04-23T07:31:24.461Z,18.28
2024-04-23T07:32:24.476Z,17.74
2024-04-23T07:33:24.451Z,17.26
2024-04-23T07:34:24.402Z,16.84
2024-04-23T07:35:24.614Z,16.50
2024-04-23T07:36:24.405Z,15.98
2024-04-23T07:37:24.413Z,15.91
2024-04-23T07:38:24.439Z,15.84
2024-04-23T07:39:24.366Z,15.27
2024-04-23T07:40:24.414Z,14.37
2024-04-23T07:41:24.337Z,13.78
2024-04-23T07:42:24.341Z,13.59
2024-04-23T07:43:25.866Z,13.30
2024-04-23T07:44:24.396Z,12.72
2024-04-23T07:45:24.333Z,12.22
2024-04-23T07:46:24.313Z,11.99
2024-04-23T07:47:24.358Z,11.95
2024-04-23T07:48:24.330Z,12.29
2024-04-23T07:49:24.314Z,12.47
2024-04-23T07:50:24.326Z,12.78
2024-04-23T07:51:25.686Z,13.18
2024-04-23T07:52:24.272Z,13.05
2024-04-23T07:53:24.257Z,12.78
2024-04-23T07:54:24.281Z,12.75
2024-04-23T07:55:24.280Z,12.87
2024-04-23T07:56:24.268Z,12.75
2024-04-23T07:57:24.226Z,12.54
2024-04-23T07:58:24.230Z,12.60
2024-04-23T07:59:24.228Z,12.61
2024-04-23T08:00:24.206Z,12.54
2024-04-23T08:01:24.204Z,12.62
2024-04-23T08:02:24.246Z,12.75
2024-04-23T08:03:24.295Z,12.75
2024-04-23T08:04:24.229Z,12.95
2024-04-23T08:05:24.183Z,12.91
2024-04-23T08:06:24.168Z,12.85
2024-04-23T08:07:24.164Z,12.57
2024-04-23T08:08:24.191Z,12.04
2024-04-23T08:09:24.171Z,12.02
2024-04-23T08:10:24.135Z,12.22
2024-04-23T08:11:24.188Z,12.39
2024-04-23T08:12:24.128Z,12.36
2024-04-23T08:13:24.138Z,12.68
2024-04-23T08:14:24.107Z,12.54
2024-04-23T08:15:24.147Z,11.88
2024-04-23T08:16:24.141Z,12.02
2024-04-23T08:17:24.238Z,12.36
2024-04-23T08:18:24.182Z,12.94
2024-04-23T08:19:24.076Z,13.42
2024-04-23T08:20:24.090Z,13.00
2024-04-23T08:21:24.082Z,12.68
2024-04-23T08:22:24.098Z,12.27
2024-04-23T08:23:24.066Z,12.32
2024-04-23T08:24:24.038Z,12.32
2024-04-23T08:25:24.050Z,12.60
2024-04-23T08:26:24.019Z,12.12
2024-04-23T08:27:24.031Z,12.29
2024-04-23T08:28:25.000Z,12.54
2024-04-23T08:29:23.989Z,13.33
2024-04-23T08:30:23.989Z,12.97
2024-04-23T08:31:24.000Z,12.36
2024-04-23T08:32:24.057Z,12.57
2024-04-23T08:33:23.999Z,12.22
2024-04-23T08:34:23.958Z,12.28
2024-04-23T08:35:23.972Z,12.12
2024-04-23T08:36:23.942Z,12.75
2024-04-23T08:37:23.969Z,13.22
2024-04-23T08:38:23.926Z,12.90
2024-04-23T08:39:23.928Z,13.37
2024-04-23T08:40:23.914Z,12.85
2024-04-23T08:41:23.929Z,12.61
2024-04-23T08:42:23.929Z,12.76
2024-04-23T08:43:23.900Z,12.80
2024-04-23T08:44:23.897Z,13.50
2024-04-23T08:45:23.910Z,13.31
2024-04-23T08:46:23.903Z,12.82
2024-04-23T08:47:23.980Z,12.49
2024-04-23T08:48:23.948Z,12.61
2024-04-23T08:49:23.840Z,12.80
2024-04-23T08:50:23.881Z,13.23
2024-04-23T08:51:23.858Z,13.03
2024-04-23T08:52:23.832Z,13.23
2024-04-23T08:53:23.814Z,13.30
2024-04-23T08:54:23.828Z,13.57
2024-04-23T08:55:23.832Z,14.00
2024-04-23T08:56:23.842Z,14.54
2024-04-23T08:57:23.786Z,15.21
2024-04-23T08:58:23.775Z,15.28
2024-04-23T08:59:23.803Z,14.85
2024-04-23T09:00:23.749Z,14.33
2024-04-23T09:01:24.790Z,13.56
2024-04-23T09:02:23.819Z,13.60
2024-04-23T09:03:23.743Z,13.95
2024-04-23T09:04:23.805Z,14.40
2024-04-23T09:05:24.356Z,15.09
2024-04-23T09:06:24.756Z,15.57
2024-04-23T09:07:30.182Z,15.36
2024-04-23T09:08:25.716Z,15.00
2024-04-23T09:09:23.692Z,13.74
2024-04-23T09:10:23.787Z,13.41
2024-04-23T09:11:23.775Z,13.25
2024-04-23T09:12:23.681Z,12.12
2024-04-23T09:13:23.658Z,11.72
2024-04-23T09:14:23.658Z,11.75
2024-04-23T09:15:23.686Z,12.31
2024-04-23T09:16:23.659Z,13.42
2024-04-23T09:17:23.684Z,14.37
2024-04-23T09:18:23.656Z,15.09
2024-04-23T09:19:23.639Z,14.50
2024-04-23T09:20:23.630Z,14.03
2024-04-23T09:21:23.629Z,14.04
2024-04-23T09:22:23.623Z,13.50
2024-04-23T09:23:23.606Z,13.92
2024-04-23T09:24:23.603Z,14.08
2024-04-23T09:25:23.573Z,12.90
2024-04-23T09:26:23.582Z,11.78
2024-04-23T09:27:23.593Z,11.08
2024-04-23T09:28:24.258Z,11.27
2024-04-23T09:29:23.634Z,11.35
2024-04-23T09:30:23.556Z,12.04
2024-04-23T09:31:24.572Z,12.70
2024-04-23T09:32:23.704Z,13.04
2024-04-23T09:33:23.661Z,13.60
2024-04-23T09:34:23.645Z,13.57
2024-04-23T09:35:23.606Z,13.28
2024-04-23T09:36:23.495Z,13.72
2024-04-23T09:37:23.499Z,14.05
2024-04-23T09:38:23.504Z,14.20
2024-04-23T09:39:23.481Z,13.71
2024-04-23T09:40:23.469Z,13.18
2024-04-23T09:41:23.458Z,12.54
2024-04-23T09:42:23.460Z,12.12
2024-04-23T09:43:23.492Z,12.07
2024-04-23T09:44:23.453Z,11.83
2024-04-23T09:45:23.460Z,11.86
2024-04-23T09:46:23.424Z,12.37
2024-04-23T09:47:23.544Z,12.70
2024-04-23T09:48:23.538Z,12.85
2024-04-23T09:49:23.382Z,13.01
2024-04-23T09:50:24.397Z,13.20
2024-04-23T09:51:23.393Z,13.08
2024-04-23T09:52:25.631Z,12.97
2024-04-23T09:53:23.385Z,12.61
2024-04-23T09:54:23.351Z,12.00
2024-04-23T09:55:23.348Z,11.29
2024-04-23T09:56:23.361Z,10.94
2024-04-23T09:57:23.347Z,10.93
2024-04-23T09:58:24.696Z,10.57
2024-04-23T09:59:23.328Z,10.61
2024-04-23T10:00:23.308Z,10.74
2024-04-23T10:01:23.287Z,11.02
2024-04-23T10:02:23.390Z,11.32
2024-04-23T10:03:23.332Z,11.70
2024-04-23T10:04:24.955Z,12.03
2024-04-23T10:05:23.331Z,12.29
2024-04-23T10:06:23.259Z,12.46
2024-04-23T10:07:23.273Z,12.62
2024-04-23T10:08:23.231Z,12.78
2024-04-23T10:09:23.233Z,12.95
2024-04-23T10:10:23.957Z,12.75
2024-04-23T10:11:24.336Z,12.32
2024-04-23T10:12:23.243Z,12.47
2024-04-23T10:13:23.231Z,12.75
2024-04-23T10:14:23.189Z,12.95
2024-04-23T10:15:23.191Z,13.22
2024-04-23T10:16:23.259Z,13.57
2024-04-23T10:17:23.180Z,13.74
2024-04-23T10:18:23.249Z,13.75
2024-04-23T10:19:23.154Z,13.59
2024-04-23T10:20:23.159Z,13.35
2024-04-23T10:21:23.165Z,13.01
2024-04-23T10:22:23.119Z,12.73
2024-04-23T10:23:23.113Z,12.70
2024-04-23T10:24:23.108Z,12.36
2024-04-23T10:25:23.135Z,12.21
2024-04-23T10:26:23.155Z,11.86
2024-04-23T10:27:23.088Z,11.84
2024-04-23T10:28:23.088Z,11.84
2024-04-23T10:29:23.061Z,11.83
2024-04-23T10:30:23.091Z,12.07
2024-04-23T10:31:23.137Z,12.75
2024-04-23T10:32:23.144Z,13.25
2024-04-23T10:33:23.128Z,13.49
2024-04-23T10:34:23.029Z,13.30
2024-04-23T10:35:23.078Z,13.25
2024-04-23T10:36:23.083Z,12.76
2024-04-23T10:37:23.037Z,12.17
2024-04-23T10:38:23.052Z,11.99
2024-04-23T10:39:23.139Z,11.41
2024-04-23T10:40:23.143Z,11.07
2024-04-23T10:41:23.021Z,10.67
2024-04-23T10:42:22.981Z,10.34
2024-04-23T10:43:22.968Z,10.33
2024-04-23T10:44:23.285Z,10.17
2024-04-23T10:45:22.945Z,10.49
2024-04-23T10:46:22.950Z,10.76
2024-04-23T10:47:22.980Z,11.05
2024-04-23T10:48:23.016Z,11.48
2024-04-23T10:49:22.935Z,11.87
2024-04-23T10:50:22.935Z,11.72
2024-04-23T10:51:22.910Z,11.15
2024-04-23T10:52:22.917Z,10.78
2024-04-23T10:53:22.963Z,10.56
2024-04-23T10:54:22.920Z,10.28
2024-04-23T10:55:22.905Z,10.28
2024-04-23T10:56:22.925Z,10.72
2024-04-23T10:57:22.856Z,11.12
2024-04-23T10:58:22.867Z,11.33
2024-04-23T10:59:23.582Z,11.65
2024-04-23T11:00:22.836Z,11.81
2024-04-23T11:01:22.901Z,12.20
2024-04-23T11:02:22.982Z,12.62
2024-04-23T11:03:23.351Z,13.08
2024-04-23T11:04:22.940Z,13.00
2024-04-23T11:05:22.882Z,12.65
2024-04-23T11:06:22.793Z,12.32
2024-04-23T11:07:22.805Z,12.13
2024-04-23T11:08:22.793Z,11.83
2024-04-23T11:09:22.761Z,11.55
2024-04-23T11:10:22.822Z,11.35
2024-04-23T11:11:22.974Z,11.26
2024-04-23T11:12:22.807Z,11.23
2024-04-23T11:13:22.753Z,11.35
2024-04-23T11:14:22.713Z,11.48
2024-04-23T11:15:22.708Z,11.65
2024-04-23T11:16:22.724Z,12.00
2024-04-23T11:17:23.352Z,12.18
2024-04-23T11:18:22.987Z,12.35
2024-04-23T11:19:22.688Z,12.58
2024-04-23T11:20:22.669Z,12.75
2024-04-23T11:21:22.666Z,12.67
2024-04-23T11:22:22.695Z,12.62
2024-04-23T11:23:22.644Z,12.80
2024-04-23T11:24:22.644Z,13.03
2024-04-23T11:25:22.637Z,13.27
2024-04-23T11:26:22.685Z,13.39
2024-04-23T11:27:22.650Z,12.97
2024-04-23T11:28:22.608Z,12.85
2024-04-23T11:29:22.605Z,12.72
2024-04-23T11:30:22.601Z,12.22
2024-04-23T11:31:22.616Z,11.91
2024-04-23T11:32:22.636Z,12.12
2024-04-23T11:33:22.692Z,12.27
2024-04-23T11:34:22.586Z,12.42
2024-04-23T11:35:22.601Z,12.22
2024-04-23T11:36:22.609Z,11.88
2024-04-23T11:37:22.536Z,11.51
2024-04-23T11:38:22.553Z,11.36
2024-04-23T11:39:22.558Z,11.25
2024-04-23T11:40:22.550Z,11.35
2024-04-23T11:41:22.548Z,11.43
2024-04-23T11:42:22.515Z,11.40
2024-04-23T11:43:22.491Z,11.40
2024-04-23T11:44:22.482Z,11.25
2024-04-23T11:45:22.509Z,11.32
2024-04-23T11:46:22.514Z,11.08
2024-04-23T11:47:24.823Z,11.04
2024-04-23T11:48:23.489Z,11.26
2024-04-23T11:49:22.458Z,11.44
2024-04-23T11:50:22.511Z,11.60
2024-04-23T11:51:22.458Z,11.80
2024-04-23T11:52:22.427Z,11.99
2024-04-23T11:53:22.423Z,12.20
2024-04-23T11:54:22.411Z,12.54
2024-04-23T11:55:22.441Z,12.82
2024-04-23T11:56:22.406Z,13.33
2024-04-23T11:57:22.384Z,13.57
2024-04-23T11:58:22.423Z,13.44
2024-04-23T11:59:22.417Z,13.00
2024-04-23T12:00:22.385Z,12.67
2024-04-23T12:01:22.361Z,12.58
2024-04-23T12:02:22.338Z,12.50
2024-04-23T12:03:22.341Z,12.85
2024-04-23T12:04:22.435Z,12.91
2024-04-23T12:05:22.490Z,12.95
2024-04-23T12:06:23.460Z,12.79
2024-04-23T12:07:22.299Z,12.62
2024-04-23T12:08:22.310Z,12.22
2024-04-23T12:09:22.326Z,12.13
2024-04-23T12:10:22.291Z,11.72
2024-04-23T12:11:22.385Z,11.41
2024-04-23T12:12:22.256Z,11.68
2024-04-23T12:13:23.280Z,11.86
2024-04-23T12:14:22.359Z,12.09
2024-04-23T12:15:22.245Z,12.10
2024-04-23T12:16:22.260Z,12.60
2024-04-23T12:17:22.239Z,12.90
2024-04-23T12:18:22.367Z,12.83
2024-04-23T12:19:22.218Z,13.09
2024-04-23T12:20:23.254Z,12.94
2024-04-23T12:21:22.200Z,12.78
2024-04-23T12:22:22.201Z,12.37
2024-04-23T12:23:22.236Z,12.58
2024-04-23T12:24:23.827Z,12.79
2024-04-23T12:25:22.164Z,13.11
2024-04-23T12:26:22.158Z,13.33
2024-04-23T12:27:22.235Z,13.52
2024-04-23T12:28:22.206Z,13.23
2024-04-23T12:29:22.166Z,12.80
2024-04-23T12:30:22.608Z,12.64
2024-04-23T12:31:22.118Z,12.85
2024-04-23T12:32:22.216Z,13.27
2024-04-23T12:33:22.151Z,13.56
2024-04-23T12:34:22.098Z,13.90
2024-04-23T12:35:22.243Z,13.95
2024-04-23T12:36:22.072Z,13.96
2024-04-23T12:37:22.131Z,14.15
2024-04-23T12:38:22.088Z,14.48
2024-04-23T12:39:22.057Z,14.54
2024-04-23T12:40:23.056Z,14.63
2024-04-23T12:41:22.058Z,14.60
2024-04-23T12:42:22.093Z,14.00
2024-04-23T12:43:22.029Z,13.54
2024-04-23T12:44:22.056Z,13.13
2024-04-23T12:45:22.019Z,12.79
2024-04-23T12:46:22.023Z,12.70
2024-04-23T12:47:22.172Z,12.82
2024-04-23T12:48:22.677Z,12.90
2024-04-23T12:49:22.135Z,12.78
2024-04-23T12:50:22.014Z,12.68
2024-04-23T12:51:21.984Z,12.73
2024-04-23T12:52:21.948Z,12.58
2024-04-23T12:53:22.008Z,12.60
2024-04-23T12:54:21.933Z,12.47